createdAt,value
2018-03-07T00:00:38.236Z,99.90
2018-03-07T00:03:11.837Z,99.90
2018-03-07T00:05:45.427Z,99.90
2018-03-07T00:08:19.095Z,99.90
2018-03-07T00:10:52.873Z,99.90
2018-03-07T00:13:27.256Z,99.90
2018-03-07T00:16:00.937Z,99.90
2018-03-07T00:18:34.464Z,99.90
2018-03-07T00:21:08.014Z,99.90
2018-03-07T00:23:41.736Z,99.90
2018-03-07T00:26:15.466Z,99.90
2018-03-07T00:28:49.888Z,99.90
2018-03-07T00:31:23.635Z,99.90
2018-03-07T00:33:57.190Z,99.90
2018-03-07T00:36:30.907Z,99.90
2018-03-07T00:39:04.443Z,99.90
2018-03-07T00:41:38.021Z,99.90
2018-03-07T00:44:11.571Z,99.90
2018-03-07T00:46:45.157Z,99.90
2018-03-07T00:49:18.727Z,99.90
2018-03-07T00:51:52.257Z,99.90
2018-03-07T00:54:25.771Z,99.90
2018-03-07T00:57:02.937Z,99.90
2018-03-07T00:59:36.469Z,99.90
2018-03-07T01:02:10.051Z,99.90
2018-03-07T01:04:43.599Z,99.90
2018-03-07T01:07:17.143Z,99.90
2018-03-07T01:09:50.678Z,99.90
2018-03-07T01:12:24.255Z,99.90
2018-03-07T01:14:57.959Z,99.90
2018-03-07T01:17:31.523Z,99.90
2018-03-07T01:20:05.072Z,99.90
2018-03-07T01:22:38.644Z,99.90
2018-03-07T01:25:12.263Z,99.90
2018-03-07T01:27:46.607Z,99.90
2018-03-07T01:30:20.899Z,99.90
2018-03-07T01:32:54.631Z,99.90
2018-03-07T01:35:28.918Z,99.90
2018-03-07T01:38:02.617Z,99.90
2018-03-07T01:40:36.306Z,99.90
2018-03-07T01:43:09.836Z,99.90
2018-03-07T01:45:43.442Z,99.90
2018-03-07T01:48:16.997Z,99.90
2018-03-07T01:50:50.515Z,99.90
2018-03-07T01:53:24.254Z,99.90
2018-03-07T01:55:57.821Z,99.90
2018-03-07T01:58:31.346Z,99.90
2018-03-07T02:01:05.004Z,99.90
2018-03-07T02:18:27.837Z,99.90
2018-03-07T02:21:01.390Z,99.90
2018-03-07T02:23:34.990Z,99.90
2018-03-07T02:26:08.777Z,99.90
2018-03-07T02:28:42.383Z,99.90
2018-03-07T02:31:15.967Z,99.90
2018-03-07T02:33:49.500Z,99.90
2018-03-07T02:36:31.176Z,99.90
2018-03-07T02:39:05.639Z,99.90
2018-03-07T02:41:40.211Z,99.90
2018-03-07T02:44:13.936Z,99.90
2018-03-07T02:46:47.441Z,99.90
2018-03-07T02:49:24.995Z,99.90
2018-03-07T02:51:58.613Z,99.90
2018-03-07T02:54:32.323Z,99.90
2018-03-07T02:57:05.832Z,99.90
2018-03-07T02:59:39.425Z,99.90
2018-03-07T03:02:12.925Z,99.90
2018-03-07T03:04:47.237Z,99.90
2018-03-07T03:07:21.653Z,99.90
2018-03-07T03:09:55.955Z,99.90
2018-03-07T03:12:30.297Z,99.90
2018-03-07T03:15:03.947Z,99.90
2018-03-07T03:17:37.533Z,99.90
2018-03-07T03:20:11.186Z,99.90
2018-03-07T03:22:45.546Z,99.90
2018-03-07T03:25:19.904Z,99.90
2018-03-07T03:27:54.248Z,99.90
2018-03-07T03:30:27.745Z,99.90
2018-03-07T03:33:01.412Z,99.90
2018-03-07T03:35:35.114Z,99.90
2018-03-07T03:38:08.700Z,99.90
2018-03-07T03:40:42.242Z,99.90
2018-03-07T03:43:15.958Z,99.90
2018-03-07T03:45:49.514Z,99.90
2018-03-07T03:48:23.162Z,99.90
2018-03-07T03:50:56.846Z,99.90
2018-03-07T03:53:30.347Z,99.90
2018-03-07T03:56:03.940Z,99.90
2018-03-07T03:58:37.637Z,99.90
2018-03-07T04:01:11.157Z,99.90
2018-03-07T04:03:44.749Z,99.90
2018-03-07T04:06:21.333Z,99.90
2018-03-07T04:08:54.914Z,99.90
2018-03-07T04:11:28.509Z,99.90
2018-03-07T04:14:02.109Z,99.90
2018-03-07T04:16:35.772Z,99.90
2018-03-07T04:19:09.323Z,99.90
2018-03-07T04:21:43.632Z,99.90
2018-03-07T04:24:17.354Z,99.90
2018-03-07T04:26:50.885Z,99.90
2018-03-07T04:29:24.547Z,99.90
2018-03-07T04:31:58.086Z,99.90
2018-03-07T04:34:31.646Z,99.90
2018-03-07T04:37:05.344Z,99.90
2018-03-07T04:39:38.982Z,99.90
2018-03-07T04:42:12.461Z,99.90
2018-03-07T04:44:46.098Z,99.90
2018-03-07T04:47:19.828Z,99.90
2018-03-07T04:49:53.547Z,99.90
2018-03-07T04:52:27.120Z,99.90
2018-03-07T04:55:00.724Z,99.90
2018-03-07T04:57:34.282Z,99.90
2018-03-07T05:00:08.682Z,99.90
2018-03-07T05:02:42.366Z,99.90
2018-03-07T05:05:15.966Z,99.90
2018-03-07T05:07:49.572Z,99.90
2018-03-07T05:10:23.209Z,99.90
2018-03-07T05:12:57.512Z,99.90
2018-03-07T05:15:31.090Z,99.90
2018-03-07T05:18:04.647Z,99.90
2018-03-07T05:20:38.238Z,99.90
2018-03-07T05:23:11.803Z,99.90
2018-03-07T05:25:45.390Z,99.90
2018-03-07T05:28:19.092Z,99.90
2018-03-07T05:30:53.422Z,99.90
2018-03-07T05:33:27.829Z,99.90
2018-03-07T05:36:01.401Z,99.90
2018-03-07T05:38:37.960Z,99.90
2018-03-07T05:41:11.481Z,99.90
2018-03-07T05:43:45.938Z,99.90
2018-03-07T05:46:19.534Z,99.90
2018-03-07T05:48:53.113Z,99.90
2018-03-07T05:51:26.822Z,99.90
2018-03-07T05:54:06.200Z,99.90
2018-03-07T05:56:40.573Z,99.90
2018-03-07T05:59:14.210Z,99.90
2018-03-07T06:01:47.816Z,99.90
2018-03-07T06:04:21.370Z,99.90
2018-03-07T06:06:55.781Z,99.90
2018-03-07T06:09:29.268Z,99.90
2018-03-07T06:12:02.785Z,99.90
2018-03-07T06:14:36.330Z,99.90
2018-03-07T06:17:10.007Z,99.90
2018-03-07T06:19:43.718Z,99.90
2018-03-07T06:22:18.837Z,99.90
2018-03-07T06:24:53.378Z,99.90
2018-03-07T06:27:26.943Z,99.90
2018-03-07T06:30:00.518Z,99.90
2018-03-07T06:32:34.053Z,99.90
2018-03-07T06:35:07.689Z,99.90
2018-03-07T06:37:41.182Z,99.90
2018-03-07T06:40:14.746Z,99.90
2018-03-07T06:42:48.265Z,99.90
2018-03-07T06:45:21.862Z,99.90
2018-03-07T06:47:55.586Z,99.90
2018-03-07T06:50:29.182Z,99.90
2018-03-07T06:53:02.759Z,99.90
2018-03-07T06:55:36.402Z,99.90
2018-03-07T06:58:10.831Z,99.90
2018-03-07T07:00:48.410Z,99.90
2018-03-07T07:03:21.973Z,99.90
2018-03-07T07:05:55.590Z,99.90
2018-03-07T07:08:29.111Z,99.90
2018-03-07T07:11:02.652Z,99.90
2018-03-07T07:13:36.288Z,99.90
2018-03-07T07:16:10.605Z,99.90
2018-03-07T07:18:44.126Z,99.90
2018-03-07T07:21:18.409Z,99.90
2018-03-07T07:23:52.004Z,99.90
2018-03-07T07:26:25.528Z,99.90
2018-03-07T07:28:59.119Z,99.90
2018-03-07T07:31:32.661Z,99.90
2018-03-07T07:34:06.304Z,99.90
2018-03-07T07:36:42.994Z,99.90
2018-03-07T07:39:16.509Z,99.90
2018-03-07T07:41:50.045Z,99.90
2018-03-07T07:44:23.605Z,99.90
2018-03-07T07:46:57.896Z,99.90
2018-03-07T07:49:32.547Z,99.90
2018-03-07T07:52:06.347Z,99.90
2018-03-07T07:54:39.873Z,99.90
2018-03-07T07:57:13.434Z,99.90
2018-03-07T07:59:47.010Z,99.90
2018-03-07T08:02:20.551Z,99.90
2018-03-07T08:04:54.123Z,99.90
2018-03-07T08:07:27.700Z,99.90
2018-03-07T08:10:01.958Z,99.90
2018-03-07T08:12:35.482Z,99.90
2018-03-07T08:15:09.045Z,99.90
2018-03-07T08:17:42.603Z,99.90
2018-03-07T08:20:16.264Z,99.90
2018-03-07T08:22:49.971Z,99.90
2018-03-07T08:25:23.513Z,99.90
2018-03-07T08:27:57.051Z,99.90
2018-03-07T08:30:30.648Z,99.90
2018-03-07T08:33:04.925Z,99.90
2018-03-07T08:35:38.458Z,99.90
2018-03-07T08:38:12.372Z,99.90
2018-03-07T08:40:46.154Z,99.90
2018-03-07T08:43:19.864Z,99.90
2018-03-07T08:45:53.422Z,99.90
2018-03-07T08:48:26.994Z,99.90
2018-03-07T08:51:00.725Z,99.90
2018-03-07T08:53:34.276Z,99.90
2018-03-07T08:56:07.865Z,99.90
2018-03-07T08:58:41.576Z,99.90
2018-03-07T09:01:15.207Z,99.90
2018-03-07T09:03:49.696Z,99.90
2018-03-07T09:06:23.440Z,99.90
2018-03-07T09:08:56.992Z,99.90
2018-03-07T09:11:31.347Z,99.90
2018-03-07T09:14:04.821Z,99.90
2018-03-07T09:16:38.505Z,99.90
2018-03-07T09:19:12.850Z,99.90
2018-03-07T09:21:47.198Z,99.90
2018-03-07T09:24:20.862Z,99.90
2018-03-07T09:26:54.372Z,99.90
2018-03-07T09:29:27.917Z,99.90
2018-03-07T09:32:01.535Z,99.90
2018-03-07T09:34:35.060Z,99.90
2018-03-07T09:37:08.606Z,99.90
2018-03-07T09:39:42.886Z,99.90
2018-03-07T09:42:16.422Z,99.90
2018-03-07T09:44:49.941Z,99.90
2018-03-07T09:47:23.499Z,99.90
2018-03-07T09:49:57.067Z,99.90
2018-03-07T09:52:30.593Z,99.90
2018-03-07T09:55:04.170Z,99.50
2018-03-07T09:57:37.778Z,99.80
2018-03-07T10:00:11.273Z,98.30
2018-03-07T10:02:44.881Z,98.50
2018-03-07T10:05:18.474Z,98.10
2018-03-07T10:07:52.087Z,96.50
2018-03-07T10:10:25.598Z,94.90
2018-03-07T10:12:59.182Z,95.90
2018-03-07T10:15:32.748Z,96.50
2018-03-07T10:18:07.204Z,95.90
2018-03-07T10:20:41.013Z,94.60
2018-03-07T10:23:14.718Z,94.40
2018-03-07T10:25:48.303Z,94.90
2018-03-07T10:28:21.845Z,94.70
2018-03-07T10:30:55.416Z,94.40
2018-03-07T10:33:29.113Z,94.20
2018-03-07T10:36:02.654Z,93.30
2018-03-07T10:38:36.209Z,94.40
2018-03-07T10:41:09.733Z,93.90
2018-03-07T10:43:43.419Z,94.00
2018-03-07T10:46:17.047Z,94.50
2018-03-07T10:48:50.802Z,94.50
2018-03-07T10:51:25.127Z,95.50
2018-03-07T10:53:58.746Z,95.40
2018-03-07T10:56:32.257Z,94.90
2018-03-07T10:59:05.829Z,95.20
2018-03-07T11:01:39.359Z,95.00
2018-03-07T11:04:12.979Z,94.80
2018-03-07T11:06:46.671Z,94.90
2018-03-07T11:09:20.222Z,94.30
2018-03-07T11:11:53.897Z,94.80
2018-03-07T11:14:27.600Z,95.60
2018-03-07T11:17:01.166Z,95.40
2018-03-07T11:19:34.826Z,95.60
2018-03-07T11:22:09.169Z,93.70
2018-03-07T11:24:42.753Z,93.60
2018-03-07T11:27:16.433Z,93.30
2018-03-07T11:29:50.105Z,93.70
2018-03-07T11:32:23.844Z,92.70
2018-03-07T11:34:57.506Z,91.80
2018-03-07T11:37:31.207Z,92.50
2018-03-07T11:40:04.771Z,92.50
2018-03-07T11:42:38.469Z,91.70
2018-03-07T11:45:12.097Z,91.10
2018-03-07T11:47:46.041Z,86.40
2018-03-07T11:50:19.717Z,83.80
2018-03-07T11:52:53.222Z,84.70
2018-03-07T11:55:26.774Z,83.80
2018-03-07T11:58:00.478Z,81.70
2018-03-07T12:00:34.830Z,79.00
2018-03-07T12:03:09.231Z,80.10
2018-03-07T12:05:42.865Z,80.00
2018-03-07T12:08:16.499Z,79.40
2018-03-07T12:10:50.174Z,81.20
2018-03-07T12:13:23.765Z,79.00
2018-03-07T12:15:57.361Z,76.00
2018-03-07T12:18:30.944Z,69.60
2018-03-07T12:21:04.545Z,63.70
2018-03-07T12:23:38.097Z,65.00
2018-03-07T12:26:11.660Z,64.00
2018-03-07T12:28:45.212Z,61.50
2018-03-07T12:31:18.800Z,59.90
2018-03-07T12:33:52.354Z,59.60
2018-03-07T12:36:25.927Z,59.70
2018-03-07T12:38:59.484Z,58.80
2018-03-07T12:41:33.038Z,58.30
2018-03-07T12:44:06.612Z,58.50
2018-03-07T12:46:40.265Z,58.50
2018-03-07T12:49:14.564Z,59.10
2018-03-07T12:51:48.996Z,58.70
2018-03-07T12:54:22.505Z,58.50
2018-03-07T12:56:56.043Z,58.60
2018-03-07T12:59:29.629Z,59.60
2018-03-07T13:02:03.167Z,59.00
2018-03-07T13:04:36.766Z,58.40
2018-03-07T13:07:10.344Z,57.90
2018-03-07T13:09:45.240Z,58.60
2018-03-07T13:12:18.957Z,58.60
2018-03-07T13:14:52.513Z,58.30
2018-03-07T13:17:26.848Z,57.30
2018-03-07T13:20:00.392Z,57.20
2018-03-07T13:22:34.130Z,57.00
2018-03-07T13:25:07.717Z,56.30
2018-03-07T13:27:41.333Z,56.60
2018-03-07T13:30:14.916Z,56.70
2018-03-07T13:32:49.259Z,58.30
2018-03-07T13:35:22.854Z,58.30
2018-03-07T13:37:56.487Z,58.00
2018-03-07T13:40:30.179Z,58.00
2018-03-07T13:43:03.673Z,58.60
2018-03-07T13:45:37.213Z,58.00
2018-03-07T13:48:10.902Z,58.50
2018-03-07T13:50:45.592Z,58.60
2018-03-07T13:53:19.143Z,57.60
2018-03-07T13:55:53.659Z,58.60
2018-03-07T13:58:27.401Z,58.60
2018-03-07T14:01:00.972Z,59.00
2018-03-07T14:03:35.475Z,60.00
2018-03-07T14:06:09.039Z,60.00
2018-03-07T14:08:42.622Z,60.50
2018-03-07T14:11:16.941Z,58.90
2018-03-07T14:13:50.601Z,58.90
2018-03-07T14:16:24.967Z,59.40
2018-03-07T14:18:58.608Z,59.40
2018-03-07T14:21:32.201Z,59.70
2018-03-07T14:24:05.702Z,59.80
2018-03-07T14:26:39.257Z,59.70
2018-03-07T14:29:12.834Z,59.30
2018-03-07T14:31:46.353Z,59.40
2018-03-07T14:34:19.965Z,58.90
2018-03-07T14:36:53.697Z,59.90
2018-03-07T14:39:27.279Z,60.20
2018-03-07T14:42:01.597Z,59.70
2018-03-07T14:44:35.161Z,59.60
2018-03-07T14:47:08.818Z,60.40
2018-03-07T14:49:42.521Z,60.30
2018-03-07T14:52:16.149Z,59.80
2018-03-07T14:54:50.597Z,59.70
2018-03-07T14:57:24.176Z,59.60
2018-03-07T14:59:58.526Z,59.20
2018-03-07T15:02:32.113Z,59.70
2018-03-07T15:05:05.637Z,59.90
2018-03-07T15:07:39.932Z,60.50
2018-03-07T15:10:14.367Z,60.00
2018-03-07T15:12:47.960Z,59.90
2018-03-07T15:15:21.558Z,60.50
2018-03-07T15:17:55.930Z,59.80
2018-03-07T15:20:29.523Z,59.70
2018-03-07T15:23:03.803Z,59.70
2018-03-07T15:25:38.199Z,59.70
2018-03-07T15:28:12.463Z,59.70
2018-03-07T15:30:46.180Z,59.60
2018-03-07T15:33:20.460Z,59.80
2018-03-07T15:35:53.962Z,59.70
2018-03-07T15:38:28.268Z,59.60
2018-03-07T15:41:01.802Z,59.60
2018-03-07T15:43:35.370Z,60.10
2018-03-07T15:46:08.901Z,60.30
2018-03-07T15:48:43.302Z,59.80
2018-03-07T15:51:17.013Z,59.80
2018-03-07T15:53:50.702Z,59.10
2018-03-07T15:56:24.270Z,58.60
2018-03-07T15:58:57.813Z,58.60
2018-03-07T16:01:31.347Z,58.90
2018-03-07T16:04:04.894Z,59.20
2018-03-07T16:06:38.621Z,59.20
2018-03-07T16:09:12.194Z,59.40
2018-03-07T16:11:45.936Z,59.60
2018-03-07T16:14:19.510Z,60.00
2018-03-07T16:16:53.009Z,59.90
2018-03-07T16:19:26.580Z,59.90
2018-03-07T16:22:00.288Z,60.10
2018-03-07T16:24:33.807Z,60.40
2018-03-07T16:27:07.395Z,60.10
2018-03-07T16:29:40.925Z,59.90
2018-03-07T16:32:14.526Z,59.90
2018-03-07T16:34:48.208Z,59.70
2018-03-07T16:37:21.801Z,60.10
2018-03-07T16:39:56.179Z,60.40
2018-03-07T16:42:29.862Z,60.40
2018-03-07T16:45:03.514Z,59.80
2018-03-07T16:47:37.150Z,59.60
2018-03-07T16:50:10.720Z,59.60
2018-03-07T16:52:44.284Z,60.20
2018-03-07T16:55:17.859Z,60.40
2018-03-07T16:57:51.399Z,60.60
2018-03-07T17:00:25.036Z,60.80
2018-03-07T17:02:59.294Z,61.70
2018-03-07T17:05:33.569Z,61.20
2018-03-07T17:08:07.193Z,61.20
2018-03-07T17:10:40.876Z,61.50
2018-03-07T17:13:14.426Z,61.70
2018-03-07T17:15:47.962Z,62.20
2018-03-07T17:18:21.477Z,62.20
2018-03-07T17:20:55.266Z,62.40
2018-03-07T17:23:28.758Z,62.70
2018-03-07T17:26:02.392Z,63.00
2018-03-07T17:28:36.707Z,62.50
2018-03-07T17:31:10.395Z,62.50
2018-03-07T17:33:44.117Z,63.30
2018-03-07T17:36:17.675Z,64.40
2018-03-07T17:38:52.002Z,64.50
2018-03-07T17:41:25.637Z,64.40
2018-03-07T17:43:59.434Z,63.70
2018-03-07T17:46:33.749Z,65.00
2018-03-07T17:49:07.357Z,64.80
2018-03-07T17:51:41.752Z,66.30
2018-03-07T17:54:15.429Z,66.20
2018-03-07T17:56:49.108Z,66.20
2018-03-07T17:59:22.764Z,66.70
2018-03-07T18:01:56.350Z,67.50
2018-03-07T18:04:30.037Z,67.30
2018-03-07T18:07:03.600Z,67.90
2018-03-07T18:09:37.256Z,69.10
2018-03-07T18:12:11.792Z,70.00
2018-03-07T18:14:45.522Z,70.00
2018-03-07T18:17:19.119Z,71.00
2018-03-07T18:19:52.654Z,71.80
2018-03-07T18:22:26.305Z,72.40
2018-03-07T18:24:59.827Z,70.80
2018-03-07T18:27:33.526Z,72.20
2018-03-07T18:30:07.082Z,73.50
2018-03-07T18:32:40.634Z,73.70
2018-03-07T18:35:14.186Z,74.20
2018-03-07T18:37:47.928Z,74.80
2018-03-07T18:40:21.474Z,75.80
2018-03-07T18:42:55.913Z,76.90
2018-03-07T18:45:29.518Z,76.80
2018-03-07T18:48:03.217Z,76.80
2018-03-07T18:50:36.838Z,76.60
2018-03-07T18:53:10.413Z,75.90
2018-03-07T18:55:43.951Z,76.10
2018-03-07T18:58:18.438Z,75.70
2018-03-07T19:00:52.769Z,75.80
2018-03-07T19:03:26.275Z,75.70
2018-03-07T19:05:59.943Z,76.10
2018-03-07T19:08:34.274Z,76.30
2018-03-07T19:11:07.883Z,76.30
2018-03-07T19:13:41.594Z,76.10
2018-03-07T19:16:15.081Z,75.60
2018-03-07T19:18:48.676Z,76.10
2018-03-07T19:21:22.263Z,75.70
2018-03-07T19:23:55.944Z,76.30
2018-03-07T19:26:29.654Z,76.50
2018-03-07T19:29:04.176Z,76.90
2018-03-07T19:31:38.050Z,76.80
2018-03-07T19:34:11.655Z,76.90
2018-03-07T19:36:45.448Z,77.10
2018-03-07T19:39:20.151Z,76.50
2018-03-07T19:41:54.030Z,76.10
2018-03-07T19:44:27.838Z,75.00
2018-03-07T19:47:02.393Z,73.00
2018-03-07T19:49:36.799Z,72.60
2018-03-07T19:52:10.424Z,72.50
2018-03-07T19:54:44.170Z,72.40
2018-03-07T19:57:17.829Z,72.70
2018-03-07T19:59:51.423Z,74.00
2018-03-07T20:02:25.144Z,74.40
2018-03-07T20:04:58.711Z,73.50
2018-03-07T20:07:32.251Z,73.90
2018-03-07T20:10:06.605Z,75.50
2018-03-07T20:12:41.163Z,75.70
2018-03-07T20:15:15.674Z,77.30
2018-03-07T20:17:49.269Z,76.60
2018-03-07T20:20:23.538Z,79.20
2018-03-07T20:22:57.087Z,79.20
2018-03-07T20:25:30.592Z,80.30
2018-03-07T20:28:04.135Z,80.50
2018-03-07T20:30:37.712Z,81.90
2018-03-07T20:33:11.420Z,83.30
2018-03-07T20:35:44.992Z,85.50
2018-03-07T20:38:18.507Z,87.70
2018-03-07T20:40:52.017Z,89.40
2018-03-07T20:43:25.586Z,91.00
2018-03-07T20:45:59.178Z,91.70
2018-03-07T20:48:32.766Z,91.90
2018-03-07T20:51:06.279Z,92.60
2018-03-07T20:53:39.867Z,93.10
2018-03-07T20:56:13.386Z,93.60
2018-03-07T21:01:44.544Z,93.60
2018-03-07T21:04:18.134Z,93.80
2018-03-07T21:06:51.623Z,93.80
2018-03-07T21:09:25.189Z,93.80
2018-03-07T21:11:59.540Z,93.40
2018-03-07T21:14:33.131Z,93.40
2018-03-07T21:17:06.793Z,93.60
2018-03-07T21:19:40.352Z,93.60
2018-03-07T21:22:13.962Z,93.20
2018-03-07T21:24:47.546Z,93.10
2018-03-07T21:27:21.181Z,93.00
2018-03-07T21:29:54.767Z,93.30
2018-03-07T21:32:28.552Z,93.70
2018-03-07T21:35:02.257Z,93.70
2018-03-07T21:37:36.696Z,94.00
2018-03-07T21:40:10.292Z,94.00
2018-03-07T21:42:44.179Z,93.80
2018-03-07T21:45:17.784Z,93.50
2018-03-07T21:47:53.331Z,93.50
2018-03-07T21:50:27.004Z,93.40
2018-03-07T21:53:00.740Z,93.40
2018-03-07T21:55:34.349Z,93.80
2018-03-07T21:58:07.912Z,93.70
2018-03-07T22:00:41.576Z,93.50
2018-03-07T22:03:15.217Z,93.50
2018-03-07T22:05:48.763Z,93.50
2018-03-07T22:08:22.345Z,93.50
2018-03-07T22:10:55.868Z,93.50
2018-03-07T22:13:29.510Z,93.60
2018-03-07T22:16:03.175Z,94.30
2018-03-07T22:18:36.734Z,94.60
2018-03-07T22:21:10.299Z,94.70
2018-03-07T22:23:43.833Z,94.90
2018-03-07T22:26:17.359Z,95.10
2018-03-07T22:28:50.974Z,94.80
2018-03-07T22:31:24.552Z,95.60
2018-03-07T22:33:58.164Z,95.60
2018-03-07T22:36:31.869Z,95.90
2018-03-07T22:39:05.401Z,95.90
2018-03-07T22:41:38.944Z,96.40
2018-03-07T22:44:12.500Z,96.80
2018-03-07T22:46:46.200Z,96.90
2018-03-07T22:49:19.938Z,96.70
2018-03-07T22:51:53.564Z,96.90
2018-03-07T22:54:27.125Z,97.20
2018-03-07T22:57:00.783Z,97.50
2018-03-07T22:59:34.561Z,98.10
2018-03-07T23:02:08.963Z,98.80
2018-03-07T23:04:43.462Z,99.80
2018-03-07T23:07:17.046Z,99.80
2018-03-07T23:09:50.754Z,99.90
2018-03-07T23:12:24.429Z,99.90
2018-03-07T23:14:58.443Z,99.90
2018-03-07T23:17:32.100Z,99.90
2018-03-07T23:20:05.921Z,99.90
2018-03-07T23:22:39.692Z,99.90
2018-03-07T23:25:13.498Z,99.90
2018-03-07T23:27:47.350Z,99.90
2018-03-07T23:30:21.176Z,99.90
2018-03-07T23:32:54.835Z,99.90
2018-03-07T23:35:28.640Z,99.90
2018-03-07T23:38:03.180Z,99.90
2018-03-07T23:40:36.734Z,99.90
2018-03-07T23:43:10.276Z,99.90
2018-03-07T23:45:43.896Z,99.90
2018-03-07T23:48:17.489Z,99.90
2018-03-07T23:50:51.064Z,99.90
2018-03-07T23:53:25.508Z,99.90
2018-03-07T23:55:59.266Z,99.90
2018-03-07T23:58:32.893Z,99.90
